createdAt,value
2023-11-30T00:02:33.125Z,99505.06
2023-11-30T00:06:40.858Z,99511.66
2023-11-30T00:10:42.172Z,99510.63
2023-11-30T00:14:43.501Z,99507.97
2023-11-30T00:18:44.863Z,99505.34
2023-11-30T00:22:47.886Z,99498.97
2023-11-30T00:26:49.312Z,99494.19
2023-11-30T00:30:50.730Z,99475.78
2023-11-30T00:34:52.260Z,99461.50
2023-11-30T00:38:54.894Z,99445.28
2023-11-30T00:42:56.274Z,99458.66
2023-11-30T00:46:57.753Z,99457.97
2023-11-30T00:50:59.169Z,99445.34
2023-11-30T00:55:00.555Z,99458.09
2023-11-30T00:59:01.894Z,99470.06
2023-11-30T01:03:03.263Z,99476.19
2023-11-30T01:07:04.852Z,99470.22
2023-11-30T01:11:07.321Z,99474.94
2023-11-30T01:15:09.294Z,99463.75
2023-11-30T01:19:12.354Z,99455.44
2023-11-30T01:23:14.091Z,99444.00
2023-11-30T01:27:17.087Z,99449.50
2023-11-30T01:31:18.737Z,99444.53
2023-11-30T01:35:20.035Z,99440.78
2023-11-30T01:39:21.420Z,99444.84
2023-11-30T01:43:22.944Z,99437.66
2023-11-30T01:47:24.524Z,99444.84
2023-11-30T01:51:27.521Z,99436.31
2023-11-30T01:55:29.032Z,99434.50
2023-11-30T01:59:31.632Z,99429.59
2023-11-30T02:03:33.505Z,99405.75
2023-11-30T02:07:34.900Z,99403.56
2023-11-30T02:11:36.293Z,99415.47
2023-11-30T02:15:37.594Z,99409.66
2023-11-30T02:19:40.634Z,99403.59
2023-11-30T02:23:42.029Z,99390.44
2023-11-30T02:27:43.365Z,99383.56
2023-11-30T02:31:44.835Z,99390.84
2023-11-30T02:35:46.376Z,99387.13
2023-11-30T02:39:47.677Z,99377.84
2023-11-30T02:43:49.057Z,99396.25
2023-11-30T02:47:50.536Z,99376.03
2023-11-30T02:51:52.023Z,99382.25
2023-11-30T02:55:53.370Z,99376.63
2023-11-30T02:59:54.738Z,99379.25
2023-11-30T03:03:56.077Z,99369.38
2023-11-30T03:07:57.465Z,99360.66
2023-11-30T03:11:58.907Z,99377.53
2023-11-30T03:16:00.318Z,99384.72
2023-11-30T03:20:01.622Z,99365.50
2023-11-30T03:24:03.243Z,99359.28
2023-11-30T03:28:05.338Z,99357.56
2023-11-30T03:32:06.768Z,99352.19
2023-11-30T03:36:08.748Z,99340.69
2023-11-30T03:40:11.220Z,99351.22
2023-11-30T03:44:12.561Z,99356.88
2023-11-30T03:48:13.937Z,99349.16
2023-11-30T03:52:15.314Z,99366.22
2023-11-30T03:56:16.726Z,99371.78
2023-11-30T04:00:18.561Z,99370.56
2023-11-30T04:04:20.038Z,99355.06
2023-11-30T04:08:21.702Z,99367.84
2023-11-30T04:12:23.170Z,99364.47
2023-11-30T04:16:24.514Z,99367.09
2023-11-30T04:20:25.934Z,99351.50
2023-11-30T04:24:27.315Z,99351.03
2023-11-30T04:28:28.647Z,99352.22
2023-11-30T04:32:30.061Z,99358.22
2023-11-30T04:36:31.607Z,99355.50
2023-11-30T04:40:33.257Z,99351.66
2023-11-30T04:44:34.603Z,99334.00
2023-11-30T04:48:37.220Z,99332.63
2023-11-30T04:52:39.503Z,99323.13
2023-11-30T04:56:40.854Z,99326.53
2023-11-30T05:00:42.902Z,99332.31
2023-11-30T05:04:44.374Z,99330.75
2023-11-30T05:08:45.729Z,99314.16
2023-11-30T05:12:47.112Z,99323.84
2023-11-30T05:16:48.598Z,99325.34
2023-11-30T05:20:49.970Z,99324.94
2023-11-30T05:24:51.455Z,99328.31
2023-11-30T05:28:53.235Z,99323.63
2023-11-30T05:32:54.739Z,99327.75
2023-11-30T05:36:56.240Z,99328.88
2023-11-30T05:40:57.657Z,99340.75
2023-11-30T05:44:59.276Z,99325.53
2023-11-30T05:49:00.786Z,99311.91
2023-11-30T05:53:02.795Z,99312.56
2023-11-30T05:57:04.385Z,99315.97
2023-11-30T06:01:05.980Z,99315.50
2023-11-30T06:05:07.802Z,99322.38
2023-11-30T06:09:09.211Z,99326.69
2023-11-30T06:13:11.689Z,99336.34
2023-11-30T06:17:13.274Z,99349.09
2023-11-30T06:21:14.673Z,99331.47
2023-11-30T06:25:18.098Z,99323.88
2023-11-30T06:29:19.949Z,99317.38
2023-11-30T06:33:21.318Z,99324.88
2023-11-30T06:37:22.643Z,99316.81
2023-11-30T06:41:24.134Z,99327.72
2023-11-30T06:45:25.497Z,99323.06
2023-11-30T06:49:26.835Z,99311.72
2023-11-30T06:53:29.905Z,99308.78
2023-11-30T06:57:31.349Z,99321.44
2023-11-30T07:01:32.870Z,99320.69
2023-11-30T07:05:34.214Z,99320.31
2023-11-30T07:09:35.796Z,99315.66
2023-11-30T07:13:37.283Z,99306.50
2023-11-30T07:17:38.720Z,99308.25
2023-11-30T07:21:40.515Z,99294.50
2023-11-30T07:25:41.874Z,99302.13
2023-11-30T07:29:43.189Z,99308.91
2023-11-30T07:33:44.541Z,99304.66
2023-11-30T07:37:45.871Z,99300.72
2023-11-30T07:41:48.579Z,99306.38
2023-11-30T07:45:50.011Z,99312.22
2023-11-30T07:49:51.500Z,99303.84
2023-11-30T07:53:53.333Z,99307.00
2023-11-30T07:57:54.644Z,99304.72
2023-11-30T08:01:56.044Z,99296.44
2023-11-30T08:05:57.350Z,99290.41
2023-11-30T08:09:58.690Z,99295.53
2023-11-30T08:14:00.138Z,99295.16
2023-11-30T08:18:02.011Z,99285.03
2023-11-30T08:22:03.617Z,99298.38
2023-11-30T08:26:05.249Z,99285.59
2023-11-30T08:30:10.767Z,99286.22
2023-11-30T08:34:12.281Z,99290.25
2023-11-30T08:38:13.841Z,99286.28
2023-11-30T08:42:15.546Z,99296.19
2023-11-30T08:46:16.989Z,99298.16
2023-11-30T08:50:18.441Z,99295.66
2023-11-30T08:54:22.325Z,99299.38
2023-11-30T08:58:24.155Z,99291.63
2023-11-30T09:02:25.668Z,99283.00
2023-11-30T09:06:27.181Z,99279.56
2023-11-30T09:10:29.368Z,99279.91
2023-11-30T09:14:32.106Z,99278.69
2023-11-30T09:18:33.592Z,99283.31
2023-11-30T09:22:36.403Z,99289.66
2023-11-30T09:26:37.818Z,99289.03
2023-11-30T09:30:39.170Z,99291.88
2023-11-30T09:34:40.534Z,99283.47
2023-11-30T09:38:42.249Z,99279.25
2023-11-30T09:42:43.738Z,99283.63
2023-11-30T09:46:45.838Z,99274.84
2023-11-30T09:50:48.241Z,99285.44
2023-11-30T09:54:55.192Z,99288.28
2023-11-30T09:58:56.832Z,99292.78
2023-11-30T10:03:00.078Z,99287.16
2023-11-30T10:07:03.323Z,99277.25
2023-11-30T10:11:05.123Z,99263.47
2023-11-30T10:15:07.065Z,99259.38
2023-11-30T10:19:08.831Z,99278.38
2023-11-30T10:23:14.343Z,99274.09
2023-11-30T10:27:20.348Z,99285.25
2023-11-30T10:31:25.493Z,99275.69
2023-11-30T10:35:30.479Z,99276.41
2023-11-30T10:39:37.617Z,99281.66
2023-11-30T10:43:47.166Z,99263.69
2023-11-30T10:47:48.997Z,99273.19
2023-11-30T10:51:52.594Z,99271.09
2023-11-30T10:55:55.447Z,99267.75
2023-11-30T11:00:00.829Z,99265.78
2023-11-30T11:04:06.894Z,99260.16
2023-11-30T11:08:08.431Z,99258.53
2023-11-30T11:12:22.485Z,99259.91
2023-11-30T11:16:43.951Z,99260.41
2023-11-30T11:20:45.400Z,99258.06
2023-11-30T11:24:48.350Z,99256.78
2023-11-30T11:28:50.356Z,99266.31
2023-11-30T11:32:51.768Z,99270.59
2023-11-30T11:36:53.439Z,99262.31
2023-11-30T11:40:54.887Z,99259.91
2023-11-30T11:44:56.486Z,99259.44
2023-11-30T11:48:57.914Z,99262.13
2023-11-30T11:53:00.867Z,99262.97
2023-11-30T11:57:02.773Z,99251.22
2023-11-30T12:01:04.353Z,99254.06
2023-11-30T12:05:13.372Z,99258.03
2023-11-30T12:09:14.762Z,99250.97
2023-11-30T12:13:16.220Z,99251.31
2023-11-30T12:17:17.559Z,99238.63
2023-11-30T12:21:22.376Z,99235.97
2023-11-30T12:25:25.874Z,99238.28
2023-11-30T12:29:27.205Z,99234.94
2023-11-30T12:33:28.661Z,99231.31
2023-11-30T12:37:30.059Z,99220.50
2023-11-30T12:41:31.634Z,99226.84
2023-11-30T12:45:33.040Z,99230.41
2023-11-30T12:49:35.861Z,99225.88
2023-11-30T12:53:39.520Z,99238.13
2023-11-30T12:57:41.113Z,99221.75
2023-11-30T13:01:42.586Z,99226.44
2023-11-30T13:05:44.078Z,99217.91
2023-11-30T13:09:46.045Z,99230.75
2023-11-30T13:13:47.924Z,99225.72
2023-11-30T13:17:49.581Z,99226.81
2023-11-30T13:21:51.749Z,99223.78
2023-11-30T13:25:53.168Z,99216.75
2023-11-30T13:29:54.616Z,99221.56
2023-11-30T13:33:55.999Z,99216.81
2023-11-30T13:38:00.251Z,99218.16
2023-11-30T13:42:01.898Z,99222.31
2023-11-30T13:46:06.763Z,99227.63
2023-11-30T13:50:16.829Z,99232.00
2023-11-30T13:54:28.170Z,99225.75
2023-11-30T13:58:29.704Z,99233.59
2023-11-30T14:02:31.028Z,99231.19
2023-11-30T14:06:33.213Z,99228.53
2023-11-30T14:10:34.638Z,99226.44
2023-11-30T14:18:37.863Z,99233.03
2023-11-30T14:22:39.288Z,99236.19
2023-11-30T14:26:40.796Z,99224.00
2023-11-30T14:30:42.269Z,99232.69
2023-11-30T14:34:43.702Z,99233.41
2023-11-30T14:38:45.383Z,99235.22
2023-11-30T14:42:46.842Z,99237.38
2023-11-30T14:46:48.239Z,99241.72
2023-11-30T14:50:49.849Z,99253.47
2023-11-30T14:54:54.001Z,99257.72
2023-11-30T14:58:55.578Z,99242.34
2023-11-30T15:02:56.916Z,99243.00
2023-11-30T15:06:58.397Z,99253.88
2023-11-30T15:11:00.314Z,99253.13
2023-11-30T15:15:02.153Z,99243.78
2023-11-30T15:19:05.012Z,99254.03
2023-11-30T15:23:06.381Z,99247.72
2023-11-30T15:27:07.912Z,99257.19
2023-11-30T15:31:09.814Z,99264.41
2023-11-30T15:35:11.285Z,99269.13
2023-11-30T15:39:17.136Z,99271.25
2023-11-30T15:43:18.529Z,99268.72
2023-11-30T15:47:19.942Z,99266.34
2023-11-30T15:51:21.333Z,99267.88
2023-11-30T15:55:23.795Z,99265.44
2023-11-30T15:59:25.539Z,99273.78
2023-11-30T16:03:27.001Z,99278.91
2023-11-30T16:07:28.389Z,99269.03
2023-11-30T16:11:29.759Z,99276.81
2023-11-30T16:15:31.149Z,99281.59
2023-11-30T16:19:36.534Z,99290.88
2023-11-30T16:23:37.852Z,99298.09
2023-11-30T16:27:42.235Z,99299.22
2023-11-30T16:31:43.668Z,99302.75
2023-11-30T16:35:45.184Z,99302.81
2023-11-30T16:39:47.305Z,99300.81
2023-11-30T16:43:48.651Z,99307.06
2023-11-30T16:47:49.975Z,99304.66
2023-11-30T16:51:55.590Z,99304.09
2023-11-30T16:56:00.996Z,99310.03
2023-11-30T17:00:04.399Z,99303.28
2023-11-30T17:04:06.267Z,99305.25
2023-11-30T17:08:07.777Z,99304.19
2023-11-30T17:12:09.181Z,99316.53
2023-11-30T17:16:10.800Z,99317.91
2023-11-30T17:20:15.288Z,99314.75
2023-11-30T17:24:16.669Z,99308.03
2023-11-30T17:28:18.223Z,99304.94
2023-11-30T17:32:19.735Z,99309.22
2023-11-30T17:36:22.365Z,99310.50
2023-11-30T17:40:23.824Z,99311.78
2023-11-30T17:44:26.366Z,99309.06
2023-11-30T17:48:27.809Z,99311.72
2023-11-30T17:52:29.634Z,99317.00
2023-11-30T17:56:30.991Z,99306.78
2023-11-30T18:00:32.430Z,99314.34
2023-11-30T18:04:33.781Z,99314.94
2023-11-30T18:08:35.195Z,99318.75
2023-11-30T18:12:36.879Z,99313.13
2023-11-30T18:16:38.371Z,99308.88
2023-11-30T18:20:39.824Z,99313.03
2023-11-30T18:24:41.271Z,99309.81
2023-11-30T18:28:42.710Z,99319.31
2023-11-30T18:32:44.211Z,99316.81
2023-11-30T18:36:46.076Z,99329.56
2023-11-30T18:40:47.479Z,99328.97
2023-11-30T18:44:48.916Z,99334.34
2023-11-30T18:48:50.294Z,99326.97
2023-11-30T18:52:52.630Z,99335.59
2023-11-30T18:56:54.099Z,99336.09
2023-11-30T19:00:58.182Z,99338.22
2023-11-30T19:04:59.581Z,99344.31
2023-11-30T19:09:00.917Z,99350.69
2023-11-30T19:13:02.321Z,99342.59
2023-11-30T19:17:03.798Z,99349.16
2023-11-30T19:21:05.327Z,99359.16
2023-11-30T19:25:07.613Z,99365.38
2023-11-30T19:29:11.323Z,99371.50
2023-11-30T19:33:12.686Z,99372.16
2023-11-30T19:37:14.130Z,99380.38
2023-11-30T19:41:15.544Z,99384.69
2023-11-30T19:45:16.846Z,99375.00
2023-11-30T19:49:18.365Z,99382.03
2023-11-30T19:53:19.682Z,99379.03
2023-11-30T19:57:21.235Z,99381.09
2023-11-30T20:01:23.216Z,99391.25
2023-11-30T20:05:24.592Z,99394.97
2023-11-30T20:09:25.921Z,99386.31
2023-11-30T20:13:27.372Z,99382.69
2023-11-30T20:17:28.740Z,99389.50
2023-11-30T20:21:30.163Z,99395.09
2023-11-30T20:25:31.516Z,99393.66
2023-11-30T20:29:33.003Z,99394.13
2023-11-30T20:33:34.422Z,99400.06
2023-11-30T20:37:35.909Z,99404.72
2023-11-30T20:41:37.285Z,99405.25
2023-11-30T20:45:38.777Z,99411.22
2023-11-30T20:49:40.098Z,99410.88
2023-11-30T20:53:41.427Z,99406.53
2023-11-30T20:57:45.455Z,99409.34
2023-11-30T21:01:47.208Z,99413.66
2023-11-30T21:05:50.024Z,99407.44
2023-11-30T21:09:51.665Z,99404.34
2023-11-30T21:13:53.648Z,99411.16
2023-11-30T21:17:55.100Z,99413.25
2023-11-30T21:21:56.560Z,99417.34
2023-11-30T21:25:57.983Z,99411.31
2023-11-30T21:29:59.799Z,99414.25
2023-11-30T21:34:01.212Z,99411.28
2023-11-30T21:38:02.751Z,99413.03
2023-11-30T21:42:04.384Z,99409.25
2023-11-30T21:46:06.260Z,99414.47
2023-11-30T21:50:22.848Z,99422.13
2023-11-30T21:54:26.453Z,99424.44
2023-11-30T21:58:28.254Z,99418.38
2023-11-30T22:02:29.708Z,99429.78
2023-11-30T22:06:31.421Z,99441.94
2023-11-30T22:10:32.791Z,99436.88
2023-11-30T22:14:34.336Z,99419.69
2023-11-30T22:18:37.330Z,99426.94
2023-11-30T22:22:38.812Z,99442.16
2023-11-30T22:26:41.725Z,99438.53
2023-11-30T22:30:43.107Z,99441.66
2023-11-30T22:34:44.787Z,99439.19
2023-11-30T22:38:46.655Z,99439.69
2023-11-30T22:42:48.099Z,99434.06
2023-11-30T22:46:49.637Z,99449.72
2023-11-30T22:50:51.043Z,99446.41
2023-11-30T22:54:53.344Z,99441.97
2023-11-30T22:58:56.507Z,99449.72
2023-11-30T23:02:58.908Z,99466.44
2023-11-30T23:07:00.543Z,99456.69
2023-11-30T23:11:01.949Z,99464.81
2023-11-30T23:15:03.618Z,99472.53
2023-11-30T23:19:05.025Z,99470.19
2023-11-30T23:23:06.601Z,99486.41
2023-11-30T23:27:07.929Z,99474.03
2023-11-30T23:31:09.357Z,99484.75
2023-11-30T23:35:11.005Z,99485.56
2023-11-30T23:39:12.369Z,99507.25
2023-11-30T23:43:13.897Z,99506.81
2023-11-30T23:47:15.319Z,99509.63
2023-11-30T23:51:16.703Z,99503.47
2023-11-30T23:55:18.959Z,99507.47
2023-11-30T23:59:20.332Z,99517.72
